Aeroporto :
LOGIN :

Iscrizione | Disclaimer

   EN    FR    IT 

 










Sommario :    VFR   VFR Marginale   IFR   IFR Intensivo   IFR Molto Intensivo
Visibilità : 
Base nubi : 
>= 8 km
>= 3000ft
5 / 8 km
1000 / 3000 ft
1500m / 5 km
500 / 1000 ft
800 / 1500m
200 / 500 ft
< 800m
< 200 ft
Simboli :   Temporali  Nebbia  Neve Forte  Precipitazioni Forti  Vento > 20 kt
SIGMETs :   Varie  Temporali  Ghiacco  Turbolenza  Onda orograficha  Ceneri Vulcaniche






- Altitudine del aeroporto : 215 ft
- Codice IATA : ABZ


EGPD - Aberdeen / Dyce

ULTIMO METAR :
  • 241720Z AUTO 20016KT 9999 BKN022 OVC035 11/08 Q0999 NOSIG

METARs OBSOLETI :
  • 241650Z AUTO 19013KT 9999 BKN021 BKN025 BKN030 11/09 Q0999 NOSIG
  • 241620Z AUTO 19012KT 9999 BKN020 OVC036 11/09 Q0999
  • 241550Z AUTO 18016KT 9999 BKN021 BKN028 OVC035 11/09 Q0999 NOSIG
  • 241520Z AUTO 18016KT 9999 SCT019 BKN023 OVC032 11/09 Q0999 NOSIG
  • 241450Z AUTO 18019KT 9999 -RA BKN013 OVC024 11/10 Q1000 NOSIG

TAF TAF EGPD
Valido dal 24 a 18 ore il 25 a 18 ore UTC


241658Z 2418/2518 19015KT 9999 FEW010 SCT020
BECMG 2418/2420 27006KT
TEMPO 2418/2424 8000 -RA BKN012
PROB30
TEMPO 2418/2422 4000 RADZ BKN006



MetMap, La meteo Aeronautica in un colpo d'occhio ! - Copyright ORBIFLY Dicembre 2007 - Disclaimer

ORBIFLY MET'MAP TEAM :

Programmazione e sviluppo : Alexandra Zaïnal
Concezione : Baudouin d'Aumeries
Aiuto per la programmazione : Marc-Olivier Méhu
Supporto tecnico e logistico : Manuel Goepfert
Aiuto per la traduzione : Arnaldo La Scala

Contatto : metmap@orbifly.com




FONTI E CREDITI :

   NOAA